Time;durP1;ratioP1;P1;durP2;ratioP2;P2;SDS_P1;SDS_P2;PMS_P1;PMS_P2;Temp;Humidity;BMP_temperature;BMP_pressure;BME280_temperature;BME280_humidity;BME280_pressure;Samples;Min_cycle;Max_cycle;Signal;HPM_P1;HPM_P2
2022/06/12 00:00:25;;;;;;;;;;;22.60;99.90;;;;;;5040102;28;20011;-82
2022/06/12 00:02:51;;;;;;;;;;;22.60;99.90;;;;;;5041966;28;19961;-82
2022/06/12 00:05:19;;;;;;;;;;;22.60;99.90;;;;;;5041700;28;20356;-82
2022/06/12 00:07:46;;;;;;;;;;;22.60;99.90;;;;;;5043763;28;19971;-83
2022/06/12 05:08:21;;;;;;;;;;;22.50;99.90;;;;;;5288927;22;19921;-80
2022/06/12 05:10:48;;;;;;;;;;;22.50;99.90;;;;;;5042209;28;20012;-80
2022/06/12 05:13:16;;;;;;;;;;;22.50;99.90;;;;;;5042270;28;19984;-80
2022/06/12 05:15:43;;;;;;;;;;;22.50;99.90;;;;;;5040669;28;20011;-79
2022/06/12 05:18:11;;;;;;;;;;;22.50;99.90;;;;;;5034429;28;19963;-79
2022/06/12 05:20:38;;;;;;;;;;;22.50;99.90;;;;;;5039346;28;19921;-79
2022/06/12 05:23:05;;;;;;;;;;;22.50;99.90;;;;;;5070421;22;19921;-83
2022/06/12 05:25:33;;;;;;;;;;;22.50;99.90;;;;;;5047980;28;19928;-83
2022/06/12 05:28:00;;;;;;;;;;;22.50;99.90;;;;;;5048631;28;20369;-83
2022/06/12 05:30:29;;;;;;;;;;;22.50;99.90;;;;;;5049351;28;19987;-83
2022/06/12 05:32:57;;;;;;;;;;;22.50;99.90;;;;;;5049746;28;19932;-83
2022/06/12 05:35:23;;;;;;;;;;;22.50;99.90;;;;;;5048004;28;20406;-83
2022/06/12 05:37:51;;;;;;;;;;;22.50;99.90;;;;;;5047950;28;19928;-83
2022/06/12 05:40:19;;;;;;;;;;;22.50;99.90;;;;;;5041227;28;19920;-82
2022/06/12 05:42:47;;;;;;;;;;;22.50;99.90;;;;;;5037966;28;20035;-81
2022/06/12 05:45:14;;;;;;;;;;;22.50;99.90;;;;;;5038821;28;20387;-81
2022/06/12 05:47:44;;;;;;;;;;;22.50;99.90;;;;;;5037846;28;20292;-81
2022/06/12 05:50:11;;;;;;;;;;;22.60;99.90;;;;;;5037313;28;19980;-80
2022/06/12 05:52:38;;;;;;;;;;;22.50;99.90;;;;;;5037738;28;19921;-80
2022/06/12 05:55:05;;;;;;;;;;;22.60;99.90;;;;;;5038255;28;19956;-80
2022/06/12 05:57:32;;;;;;;;;;;22.60;99.90;;;;;;5038050;28;19964;-80
2022/06/12 06:00:00;;;;;;;;;;;22.50;99.90;;;;;;5037842;28;19928;-80
2022/06/12 06:02:27;;;;;;;;;;;22.50;99.90;;;;;;5037573;28;20395;-81
2022/06/12 06:04:53;;;;;;;;;;;22.50;99.90;;;;;;5038232;28;20361;-81
2022/06/12 06:07:20;;;;;;;;;;;22.50;99.90;;;;;;5038057;28;20355;-81
2022/06/12 06:09:47;;;;;;;;;;;22.50;99.90;;;;;;5037747;28;20323;-81
2022/06/12 06:12:13;;;;;;;;;;;22.60;99.90;;;;;;5038180;28;19979;-81
2022/06/12 06:14:40;;;;;;;;;;;22.50;99.90;;;;;;5040936;28;19957;-81
2022/06/12 06:17:08;;;;;;;;;;;22.60;99.90;;;;;;5041179;28;20023;-81
2022/06/12 06:19:35;;;;;;;;;;;22.60;99.90;;;;;;5042005;28;19921;-81
2022/06/12 06:22:01;;;;;;;;;;;22.50;99.90;;;;;;5041487;28;19967;-80
2022/06/12 06:24:28;;;;;;;;;;;22.60;99.90;;;;;;5039882;28;19967;-80
2022/06/12 06:26:54;;;;;;;;;;;22.60;99.90;;;;;;5040116;28;20020;-81
2022/06/12 06:29:21;;;;;;;;;;;22.60;99.90;;;;;;5040289;28;19921;-81
2022/06/12 06:31:48;;;;;;;;;;;22.60;99.90;;;;;;5040045;28;19921;-80
2022/06/12 06:34:16;;;;;;;;;;;22.60;99.90;;;;;;5040562;28;19944;-80
2022/06/12 06:36:43;;;;;;;;;;;22.60;99.90;;;;;;5043608;28;20015;-82
2022/06/12 06:39:10;;;;;;;;;;;22.60;99.90;;;;;;5046333;28;20464;-81
2022/06/12 06:41:36;;;;;;;;;;;22.50;99.90;;;;;;5047371;28;20357;-82
2022/06/12 06:46:47;;;;;;;;;;;22.50;99.90;;;;;;5045300;28;19932;-82
2022/06/12 06:49:14;;;;;;;;;;;22.60;99.90;;;;;;5048682;28;19955;-82
2022/06/12 06:51:42;;;;;;;;;;;22.60;99.90;;;;;;5048491;28;19975;-82
2022/06/12 06:54:08;;;;;;;;;;;22.60;99.90;;;;;;5046642;28;20021;-82
2022/06/12 06:56:35;;;;;;;;;;;22.60;99.90;;;;;;5048444;28;19921;-82
2022/06/12 06:59:02;;;;;;;;;;;22.60;99.90;;;;;;5050698;28;19967;-82
2022/06/12 07:01:28;;;;;;;;;;;22.60;99.90;;;;;;5048086;28;19928;-82
2022/06/12 07:03:55;;;;;;;;;;;22.60;99.90;;;;;;5044956;28;19985;-82
2022/06/12 07:06:22;;;;;;;;;;;22.60;99.90;;;;;;5046997;28;20418;-82
2022/06/12 07:08:50;;;;;;;;;;;22.60;99.90;;;;;;5043510;28;19921;-82
2022/06/12 07:11:18;;;;;;;;;;;22.60;99.90;;;;;;5043452;28;19925;-82
2022/06/12 07:13:45;;;;;;;;;;;22.60;99.90;;;;;;5041964;28;19925;-81
2022/06/12 07:16:11;;;;;;;;;;;22.60;99.90;;;;;;5042677;28;19920;-81
2022/06/12 07:18:38;;;;;;;;;;;22.60;99.90;;;;;;5041763;28;20003;-81
2022/06/12 07:21:05;;;;;;;;;;;22.60;99.90;;;;;;5043340;28;20032;-81
2022/06/12 07:23:32;;;;;;;;;;;22.60;99.90;;;;;;5043956;28;20000;-81
2022/06/12 07:26:04;;;;;;;;;;;22.60;99.90;;;;;;5045821;28;19988;-81
2022/06/12 07:28:31;;;;;;;;;;;22.60;99.90;;;;;;5047424;28;19944;-81
2022/06/12 07:30:58;;;;;;;;;;;22.60;99.90;;;;;;5046161;28;20026;-81
2022/06/12 07:33:25;;;;;;;;;;;22.60;99.90;;;;;;5043991;28;19921;-81
2022/06/12 07:35:52;;;;;;;;;;;22.60;99.90;;;;;;5043793;28;20011;-81
2022/06/12 07:38:20;;;;;;;;;;;22.60;99.90;;;;;;5046299;28;19964;-82
2022/06/12 07:40:49;;;;;;;;;;;22.60;99.90;;;;;;5043980;28;19981;-81
2022/06/12 07:43:17;;;;;;;;;;;22.60;99.90;;;;;;5045020;28;19921;-82
2022/06/12 07:45:44;;;;;;;;;;;22.60;99.90;;;;;;5046192;28;20016;-81
2022/06/12 07:48:11;;;;;;;;;;;22.60;99.90;;;;;;5044072;28;20265;-81
2022/06/12 07:50:39;;;;;;;;;;;22.60;99.90;;;;;;5046130;28;20325;-82
2022/06/12 07:53:06;;;;;;;;;;;22.60;99.90;;;;;;5041825;28;20444;-86
2022/06/12 07:55:33;;;;;;;;;;;22.60;99.90;;;;;;5040620;28;20016;-84
2022/06/12 07:58:00;;;;;;;;;;;22.60;99.90;;;;;;5037024;28;19927;-86
2022/06/12 08:00:28;;;;;;;;;;;22.60;99.90;;;;;;5036198;28;20008;-86
2022/06/12 08:02:55;;;;;;;;;;;22.60;99.90;;;;;;5037566;28;19925;-85
2022/06/12 08:05:22;;;;;;;;;;;22.60;99.90;;;;;;5036995;28;19925;-85
2022/06/12 08:07:49;;;;;;;;;;;22.50;99.90;;;;;;5035923;28;20023;-84
2022/06/12 08:10:16;;;;;;;;;;;22.60;99.90;;;;;;5036322;28;19921;-85
2022/06/12 08:12:44;;;;;;;;;;;22.50;99.90;;;;;;5036240;28;20011;-85
2022/06/12 08:15:12;;;;;;;;;;;22.50;99.90;;;;;;5036814;28;19921;-84
2022/06/12 08:17:40;;;;;;;;;;;22.50;99.90;;;;;;5036895;28;19960;-84
2022/06/12 08:20:27;;;;;;;;;;;22.50;99.90;;;;;;5037077;28;19927;-84
2022/06/12 08:22:55;;;;;;;;;;;22.40;99.90;;;;;;5037468;28;19925;-83
2022/06/12 08:25:22;;;;;;;;;;;22.40;99.90;;;;;;5038987;28;20019;-83
2022/06/12 08:27:48;;;;;;;;;;;22.40;99.90;;;;;;5038824;28;19980;-83
2022/06/12 08:30:15;;;;;;;;;;;22.40;99.90;;;;;;5038799;28;20011;-83
2022/06/12 08:32:45;;;;;;;;;;;22.40;99.90;;;;;;5039253;28;19921;-83
2022/06/12 08:35:14;;;;;;;;;;;22.40;99.90;;;;;;5037976;28;20351;-84
2022/06/12 08:37:42;;;;;;;;;;;22.40;99.90;;;;;;5034987;28;19972;-84
2022/06/12 08:40:12;;;;;;;;;;;22.40;99.90;;;;;;5036255;28;19921;-83
2022/06/12 08:42:43;;;;;;;;;;;22.40;99.90;;;;;;5036078;28;19921;-83
2022/06/12 08:45:14;;;;;;;;;;;22.40;99.90;;;;;;5037839;28;19921;-83
2022/06/12 08:47:45;;;;;;;;;;;22.40;99.90;;;;;;5038209;28;19921;-81
2022/06/12 08:50:17;;;;;;;;;;;22.30;99.90;;;;;;5038751;28;20322;-83
2022/06/12 08:52:45;;;;;;;;;;;22.30;99.90;;;;;;5037833;28;19976;-84
2022/06/12 08:55:17;;;;;;;;;;;22.30;99.90;;;;;;5037212;28;20279;-83
2022/06/12 08:57:49;;;;;;;;;;;22.40;99.90;;;;;;5041878;28;19972;-81
2022/06/12 09:00:18;;;;;;;;;;;22.40;99.90;;;;;;5037999;28;20019;-83
2022/06/12 09:02:45;;;;;;;;;;;22.40;99.90;;;;;;5036650;28;19925;-80
2022/06/12 09:05:15;;;;;;;;;;;22.40;99.90;;;;;;5036501;28;19976;-79
2022/06/12 09:07:47;;;;;;;;;;;22.40;99.90;;;;;;5036748;28;19928;-80
2022/06/12 09:10:19;;;;;;;;;;;22.40;99.90;;;;;;5036980;28;19921;-80
2022/06/12 09:12:48;;;;;;;;;;;22.40;99.90;;;;;;5037458;28;19927;-82
2022/06/12 09:15:19;;;;;;;;;;;22.40;99.90;;;;;;5037369;28;19925;-82
2022/06/12 09:17:53;;;;;;;;;;;22.40;99.90;;;;;;5037391;28;20003;-83
2022/06/12 09:20:29;;;;;;;;;;;22.40;99.90;;;;;;5037666;28;20008;-82
2022/06/12 09:23:00;;;;;;;;;;;22.50;99.90;;;;;;5036708;28;20372;-81
2022/06/12 09:25:30;;;;;;;;;;;22.50;99.90;;;;;;5038802;28;19921;-81
2022/06/12 09:28:07;;;;;;;;;;;22.50;99.90;;;;;;5037470;28;19928;-80
2022/06/12 09:30:37;;;;;;;;;;;22.50;99.90;;;;;;5036147;28;19927;-79
2022/06/12 09:33:08;;;;;;;;;;;22.50;99.90;;;;;;5035783;28;20007;-79
2022/06/12 09:35:44;;;;;;;;;;;22.50;99.90;;;;;;5036155;28;19927;-79
2022/06/12 09:38:21;;;;;;;;;;;22.50;99.90;;;;;;5035776;28;19927;-80
2022/06/12 09:40:56;;;;;;;;;;;22.50;99.90;;;;;;5034882;28;19921;-79
2022/06/12 09:43:27;;;;;;;;;;;22.50;99.90;;;;;;5035259;28;20380;-79
2022/06/12 09:45:58;;;;;;;;;;;22.60;99.90;;;;;;5035865;28;19976;-79
2022/06/12 09:48:30;;;;;;;;;;;22.60;99.90;;;;;;5036264;28;19928;-79
2022/06/12 09:51:05;;;;;;;;;;;22.60;99.90;;;;;;5039326;28;19921;-78
2022/06/12 09:53:39;;;;;;;;;;;22.60;99.90;;;;;;5039495;28;20291;-79
2022/06/12 09:56:08;;;;;;;;;;;22.60;99.90;;;;;;5041052;28;19971;-79
2022/06/12 09:58:39;;;;;;;;;;;22.60;99.90;;;;;;5041253;28;19964;-82
2022/06/12 10:01:10;;;;;;;;;;;22.60;99.90;;;;;;5047978;28;19921;-79
2022/06/12 10:03:40;;;;;;;;;;;22.60;99.90;;;;;;5046689;28;19921;-81
2022/06/12 10:06:13;;;;;;;;;;;22.60;99.90;;;;;;5047964;28;19921;-77
2022/06/12 10:08:42;;;;;;;;;;;22.60;99.90;;;;;;5040736;28;20019;-79
2022/06/12 10:11:10;;;;;;;;;;;22.60;99.90;;;;;;5039508;28;19979;-81
2022/06/12 10:13:38;;;;;;;;;;;22.60;99.90;;;;;;5039638;28;19921;-79
2022/06/12 10:16:08;;;;;;;;;;;22.60;99.90;;;;;;5039296;28;20008;-80
2022/06/12 10:18:38;;;;;;;;;;;22.60;99.90;;;;;;5039374;28;20382;-80
2022/06/12 10:21:07;;;;;;;;;;;22.70;99.90;;;;;;5041020;28;19995;-82
2022/06/12 10:23:35;;;;;;;;;;;22.70;99.90;;;;;;5041703;28;19960;-82
2022/06/12 10:26:06;;;;;;;;;;;22.70;99.90;;;;;;5038796;28;19967;-80
2022/06/12 10:28:34;;;;;;;;;;;22.70;99.90;;;;;;5038029;28;19927;-79
2022/06/12 10:31:03;;;;;;;;;;;22.70;99.90;;;;;;5038417;28;20401;-79
2022/06/12 10:33:31;;;;;;;;;;;22.70;99.90;;;;;;5037680;28;19971;-78
2022/06/12 10:35:59;;;;;;;;;;;22.70;99.90;;;;;;5038949;28;19928;-79
2022/06/12 10:38:27;;;;;;;;;;;22.70;99.90;;;;;;5037311;28;19976;-78
2022/06/12 10:40:56;;;;;;;;;;;22.70;99.90;;;;;;5038439;28;19920;-79
2022/06/12 10:43:26;;;;;;;;;;;22.70;99.90;;;;;;5039357;28;20436;-80
2022/06/12 10:45:57;;;;;;;;;;;22.80;99.90;;;;;;5039336;28;19921;-80
2022/06/12 10:48:25;;;;;;;;;;;22.80;99.90;;;;;;5039983;28;19975;-78
2022/06/12 10:50:53;;;;;;;;;;;22.80;99.90;;;;;;5038602;28;19925;-80
2022/06/12 10:53:22;;;;;;;;;;;22.80;99.90;;;;;;5038017;28;19921;-81
2022/06/12 10:55:52;;;;;;;;;;;22.80;99.90;;;;;;5038042;28;19975;-79
2022/06/12 10:58:25;;;;;;;;;;;22.80;99.90;;;;;;5038725;28;19921;-81
2022/06/12 11:00:52;;;;;;;;;;;22.80;99.90;;;;;;5040046;28;19925;-80
2022/06/12 11:03:22;;;;;;;;;;;22.80;99.90;;;;;;5038891;28;19984;-81
2022/06/12 11:05:55;;;;;;;;;;;22.80;99.90;;;;;;5038498;28;20365;-82
2022/06/12 11:08:33;;;;;;;;;;;22.90;99.90;;;;;;5039017;28;19924;-82
2022/06/12 11:11:03;;;;;;;;;;;22.80;99.90;;;;;;5040360;28;19927;-81
2022/06/12 11:13:38;;;;;;;;;;;22.80;99.90;;;;;;5041240;28;19928;-81
2022/06/12 11:16:18;;;;;;;;;;;22.90;99.90;;;;;;5040978;28;20456;-81
2022/06/12 11:18:55;;;;;;;;;;;22.80;99.90;;;;;;5038883;28;19971;-81
2022/06/12 11:21:25;;;;;;;;;;;22.80;99.90;;;;;;5038375;28;20386;-81
2022/06/12 11:23:57;;;;;;;;;;;22.80;99.90;;;;;;5039767;28;19994;-81
2022/06/12 11:26:32;;;;;;;;;;;22.90;99.90;;;;;;5043161;28;19967;-81
2022/06/12 11:29:05;;;;;;;;;;;22.80;99.90;;;;;;5044333;28;20356;-83
2022/06/12 11:31:41;;;;;;;;;;;22.80;99.90;;;;;;5066510;22;20007;-82
2022/06/12 11:34:14;;;;;;;;;;;22.80;99.90;;;;;;5042168;28;20024;-84
2022/06/12 11:36:46;;;;;;;;;;;22.80;99.90;;;;;;5041964;28;20016;-84
2022/06/12 11:39:22;;;;;;;;;;;22.90;99.90;;;;;;5041909;28;20000;-84
2022/06/12 11:41:55;;;;;;;;;;;22.90;99.90;;;;;;5042109;28;20016;-84
2022/06/12 11:44:36;;;;;;;;;;;22.90;99.90;;;;;;5043045;28;20338;-84
2022/06/12 11:47:07;;;;;;;;;;;22.90;99.90;;;;;;5043998;28;19928;-84
2022/06/12 11:49:42;;;;;;;;;;;22.90;99.90;;;;;;5048668;28;19981;-84
2022/06/12 11:52:19;;;;;;;;;;;22.90;99.90;;;;;;5048112;28;19944;-84
2022/06/12 11:55:02;;;;;;;;;;;22.90;99.90;;;;;;5047635;28;20012;-84
2022/06/12 11:57:33;;;;;;;;;;;22.90;99.90;;;;;;5046681;28;20407;-84
2022/06/12 12:00:05;;;;;;;;;;;22.90;99.90;;;;;;5046434;28;20011;-84
2022/06/12 12:02:50;;;;;;;;;;;22.90;99.90;;;;;;5046280;28;19989;-85
2022/06/12 12:05:25;;;;;;;;;;;22.90;99.90;;;;;;5046584;28;19924;-84
2022/06/12 12:07:59;;;;;;;;;;;22.90;99.90;;;;;;5045552;28;19981;-84
2022/06/12 12:10:35;;;;;;;;;;;22.90;99.90;;;;;;5045271;28;19988;-84
2022/06/12 12:13:05;;;;;;;;;;;22.90;99.90;;;;;;5046617;28;19921;-84
2022/06/12 12:15:35;;;;;;;;;;;23.00;99.90;;;;;;5045052;28;19921;-84
2022/06/12 12:18:04;;;;;;;;;;;22.90;99.90;;;;;;5044962;28;20020;-84
2022/06/12 12:20:34;;;;;;;;;;;22.90;99.90;;;;;;5044226;28;19921;-84
2022/06/12 12:23:03;;;;;;;;;;;23.00;99.90;;;;;;5044300;28;19964;-84
2022/06/12 12:25:32;;;;;;;;;;;22.90;99.90;;;;;;5044485;28;20011;-84
2022/06/12 12:28:00;;;;;;;;;;;22.90;99.90;;;;;;5043528;28;20375;-84
2022/06/12 12:30:28;;;;;;;;;;;23.00;99.90;;;;;;5043484;28;20008;-84
2022/06/12 12:32:58;;;;;;;;;;;22.90;99.90;;;;;;5042648;28;20008;-84
2022/06/12 12:41:15;;;;;;;;;;;23.00;99.90;;;;;;5042425;28;19923;-84
2022/06/12 12:43:49;;;;;;;;;;;23.00;99.90;;;;;;5042571;28;19971;-84
2022/06/12 12:46:16;;;;;;;;;;;23.00;99.90;;;;;;5043439;28;20395;-85
2022/06/12 12:48:45;;;;;;;;;;;23.00;99.90;;;;;;5041710;28;19921;-85
2022/06/12 12:51:23;;;;;;;;;;;23.00;99.90;;;;;;5041365;28;19992;-84
2022/06/12 12:53:52;;;;;;;;;;;23.00;99.90;;;;;;5039841;28;20436;-84
2022/06/12 12:56:28;;;;;;;;;;;23.00;99.90;;;;;;5039007;28;20020;-84
2022/06/12 12:58:56;;;;;;;;;;;23.00;99.90;;;;;;5039263;28;20424;-84
2022/06/12 13:01:25;;;;;;;;;;;23.00;99.90;;;;;;5039160;28;19944;-84
2022/06/12 13:03:56;;;;;;;;;;;23.00;99.90;;;;;;5039828;28;20019;-84
2022/06/12 13:06:35;;;;;;;;;;;23.00;99.90;;;;;;5041419;28;19974;-84
2022/06/12 13:09:10;;;;;;;;;;;23.00;99.90;;;;;;5041137;28;19927;-84
2022/06/12 13:11:41;;;;;;;;;;;23.10;99.90;;;;;;5042349;28;19984;-84
2022/06/12 13:14:14;;;;;;;;;;;23.10;99.90;;;;;;5042017;28;19988;-84
2022/06/12 13:16:45;;;;;;;;;;;23.10;99.90;;;;;;5041769;28;20343;-84
2022/06/12 13:19:20;;;;;;;;;;;23.10;99.90;;;;;;5041761;28;20007;-84
2022/06/12 13:21:51;;;;;;;;;;;23.10;99.90;;;;;;5042017;28;19989;-84
2022/06/12 13:24:25;;;;;;;;;;;23.10;99.90;;;;;;5042380;28;20340;-84
2022/06/12 13:26:52;;;;;;;;;;;23.10;99.90;;;;;;5042732;28;20347;-84
2022/06/12 13:29:21;;;;;;;;;;;23.10;99.90;;;;;;5041839;28;20011;-84
2022/06/12 13:31:58;;;;;;;;;;;23.20;99.90;;;;;;5041957;28;19964;-84
2022/06/12 13:34:26;;;;;;;;;;;23.20;99.90;;;;;;5045212;28;20336;-84
2022/06/12 13:36:53;;;;;;;;;;;23.20;99.90;;;;;;5040308;28;19985;-84
2022/06/12 13:39:22;;;;;;;;;;;23.20;99.90;;;;;;5038600;28;19928;-84
2022/06/12 13:41:50;;;;;;;;;;;23.20;99.90;;;;;;5039445;28;20004;-84
2022/06/12 13:44:22;;;;;;;;;;;23.20;99.90;;;;;;5038101;28;19920;-84
2022/06/12 13:46:49;;;;;;;;;;;23.30;99.90;;;;;;5038113;28;20299;-84
2022/06/12 13:49:23;;;;;;;;;;;23.20;99.90;;;;;;5040025;28;19988;-84
2022/06/12 13:51:53;;;;;;;;;;;23.30;99.90;;;;;;5040379;28;19921;-84
2022/06/12 13:54:21;;;;;;;;;;;23.20;99.90;;;;;;5040628;28;20015;-84
2022/06/12 13:56:49;;;;;;;;;;;23.20;99.90;;;;;;5040482;28;20020;-84
2022/06/12 13:59:17;;;;;;;;;;;23.30;99.90;;;;;;5040928;28;19921;-84
2022/06/12 14:01:44;;;;;;;;;;;23.20;99.90;;;;;;5039803;28;19984;-84
2022/06/12 14:04:19;;;;;;;;;;;23.20;99.90;;;;;;5037903;28;20007;-84
2022/06/12 14:06:46;;;;;;;;;;;23.20;99.90;;;;;;5037967;28;19921;-84
2022/06/12 14:09:17;;;;;;;;;;;23.20;99.90;;;;;;5037513;28;20007;-84
2022/06/12 14:11:44;;;;;;;;;;;23.20;99.80;;;;;;5037693;28;20012;-84
2022/06/12 14:14:34;;;;;;;;;;;23.20;99.70;;;;;;5037805;28;20000;-84
2022/06/12 14:17:01;;;;;;;;;;;23.20;99.70;;;;;;5036761;28;20011;-84
2022/06/12 14:19:28;;;;;;;;;;;23.20;99.60;;;;;;5037781;28;20082;-84
2022/06/12 14:22:02;;;;;;;;;;;23.20;99.50;;;;;;5038327;28;20343;-84
2022/06/12 14:24:33;;;;;;;;;;;23.20;99.50;;;;;;5038340;28;20028;-84
2022/06/12 14:27:00;;;;;;;;;;;23.20;99.30;;;;;;5038000;28;20012;-84
2022/06/12 14:29:31;;;;;;;;;;;23.20;99.30;;;;;;5038133;28;20009;-84
2022/06/12 14:32:14;;;;;;;;;;;23.20;99.30;;;;;;5037473;28;20008;-84
2022/06/12 14:34:42;;;;;;;;;;;23.20;99.30;;;;;;5041475;28;19977;-85
2022/06/12 14:37:24;;;;;;;;;;;23.20;99.30;;;;;;5041190;28;20411;-81
2022/06/12 14:39:52;;;;;;;;;;;23.20;99.30;;;;;;5038637;28;19927;-81
2022/06/12 14:42:19;;;;;;;;;;;23.20;99.30;;;;;;5038379;28;19931;-81
2022/06/12 14:44:46;;;;;;;;;;;23.20;99.30;;;;;;5038695;28;19928;-81
2022/06/12 14:47:17;;;;;;;;;;;23.20;99.20;;;;;;5038186;28;20008;-81
2022/06/12 14:49:43;;;;;;;;;;;23.20;99.20;;;;;;5037910;28;19928;-81
2022/06/12 14:52:10;;;;;;;;;;;23.20;99.20;;;;;;5038089;28;19921;-81
2022/06/12 14:54:37;;;;;;;;;;;23.20;99.10;;;;;;5037975;28;20396;-81
2022/06/12 14:57:07;;;;;;;;;;;23.20;99.10;;;;;;5037740;28;20004;-81
2022/06/12 14:59:35;;;;;;;;;;;23.20;99.00;;;;;;5038098;28;20271;-81
2022/06/12 15:02:01;;;;;;;;;;;23.10;98.90;;;;;;5037546;28;19927;-82
2022/06/12 15:04:28;;;;;;;;;;;23.20;99.00;;;;;;5038316;28;20404;-81
2022/06/12 15:06:56;;;;;;;;;;;23.20;98.90;;;;;;5037912;28;19979;-81
2022/06/12 15:09:23;;;;;;;;;;;23.10;98.90;;;;;;5037980;28;19921;-81
2022/06/12 15:11:49;;;;;;;;;;;23.10;98.80;;;;;;5037460;28;19960;-81
2022/06/12 15:14:20;;;;;;;;;;;23.10;98.80;;;;;;5037766;28;20004;-81
2022/06/12 15:16:46;;;;;;;;;;;23.10;98.80;;;;;;5037560;28;19943;-81
2022/06/12 15:19:13;;;;;;;;;;;23.10;98.80;;;;;;5037930;28;20071;-81
2022/06/12 15:21:42;;;;;;;;;;;23.10;99.10;;;;;;5037598;28;19971;-81
2022/06/12 15:24:13;;;;;;;;;;;23.10;98.70;;;;;;5037547;28;19931;-81
2022/06/12 15:32:15;;;;;;;;;;;23.10;98.70;;;;;;5026274;28;19984;-81
2022/06/12 15:34:42;;;;;;;;;;;23.10;98.70;;;;;;5037767;28;19928;-81
2022/06/12 15:37:09;;;;;;;;;;;23.10;98.60;;;;;;5037703;28;19928;-81
2022/06/12 15:39:36;;;;;;;;;;;23.10;98.60;;;;;;5037330;28;20299;-81
2022/06/12 15:42:03;;;;;;;;;;;23.10;98.60;;;;;;5037556;28;19975;-81
2022/06/12 15:44:31;;;;;;;;;;;23.10;98.60;;;;;;5037263;28;20365;-81
2022/06/12 15:46:58;;;;;;;;;;;23.10;98.50;;;;;;5036134;28;19925;-82
2022/06/12 15:49:25;;;;;;;;;;;23.10;98.50;;;;;;5037262;28;19927;-81
2022/06/12 15:51:54;;;;;;;;;;;23.10;98.50;;;;;;5037291;28;20344;-81
2022/06/12 15:54:21;;;;;;;;;;;23.10;98.40;;;;;;5037144;28;20003;-81
2022/06/12 15:56:49;;;;;;;;;;;23.10;98.40;;;;;;5037493;28;19921;-81
2022/06/12 15:59:16;;;;;;;;;;;23.10;98.40;;;;;;5038170;28;19921;-81
2022/06/12 16:01:44;;;;;;;;;;;23.10;98.40;;;;;;5037526;28;20004;-81
2022/06/12 16:04:10;;;;;;;;;;;23.10;98.40;;;;;;5036982;28;19964;-80
2022/06/12 16:06:37;;;;;;;;;;;23.10;98.30;;;;;;5036924;28;19943;-80
2022/06/12 16:09:04;;;;;;;;;;;23.10;98.30;;;;;;5037465;28;19987;-80
2022/06/12 16:11:30;;;;;;;;;;;23.10;98.30;;;;;;5036840;28;19921;-81
2022/06/12 16:13:57;;;;;;;;;;;23.10;98.30;;;;;;5037052;28;20364;-81
2022/06/12 16:16:24;;;;;;;;;;;23.10;98.20;;;;;;5036626;28;19927;-81
2022/06/12 16:18:52;;;;;;;;;;;23.10;98.20;;;;;;5036453;28;19921;-81
2022/06/12 16:21:18;;;;;;;;;;;23.10;98.20;;;;;;5036337;28;19925;-81
2022/06/12 16:23:45;;;;;;;;;;;23.10;98.20;;;;;;5036724;28;19921;-81
2022/06/12 16:26:13;;;;;;;;;;;23.10;98.20;;;;;;5036125;28;20407;-81
2022/06/12 16:28:40;;;;;;;;;;;23.10;98.20;;;;;;5036604;28;19925;-81
2022/06/12 16:31:08;;;;;;;;;;;23.10;98.20;;;;;;5036408;28;19927;-81
2022/06/12 16:33:35;;;;;;;;;;;23.10;98.20;;;;;;5036381;28;19921;-81
2022/06/12 16:36:05;;;;;;;;;;;23.10;98.10;;;;;;5036129;28;20015;-81
2022/06/12 16:38:32;;;;;;;;;;;23.10;98.10;;;;;;5036288;28;19925;-81
2022/06/12 16:40:59;;;;;;;;;;;23.10;98.10;;;;;;5036316;28;20351;-81
2022/06/12 16:43:25;;;;;;;;;;;23.10;98.10;;;;;;5035902;28;19927;-81
2022/06/12 16:45:53;;;;;;;;;;;23.00;98.10;;;;;;5035836;28;19927;-81
2022/06/12 16:48:20;;;;;;;;;;;23.10;98.10;;;;;;5035914;28;19968;-81
2022/06/12 16:50:46;;;;;;;;;;;23.00;98.10;;;;;;5038175;28;20460;-81
2022/06/12 16:53:15;;;;;;;;;;;23.10;98.10;;;;;;5037437;28;20363;-81
2022/06/12 16:55:41;;;;;;;;;;;23.10;98.10;;;;;;5036045;28;19921;-81
2022/06/12 16:58:08;;;;;;;;;;;23.00;98.10;;;;;;5035390;28;19921;-81
2022/06/12 17:00:35;;;;;;;;;;;23.00;98.10;;;;;;5035540;28;19921;-81
2022/06/12 17:03:02;;;;;;;;;;;23.00;98.10;;;;;;5036477;28;19920;-82
2022/06/12 17:05:29;;;;;;;;;;;23.10;98.10;;;;;;5035485;28;20339;-81
2022/06/12 17:07:59;;;;;;;;;;;23.10;98.10;;;;;;5035343;28;20439;-81
2022/06/12 17:10:29;;;;;;;;;;;23.10;98.10;;;;;;5036466;28;19925;-81
2022/06/12 17:12:55;;;;;;;;;;;23.00;98.10;;;;;;5035725;28;20003;-81
2022/06/12 17:15:23;;;;;;;;;;;23.10;98.10;;;;;;5035536;28;19971;-81
2022/06/12 17:20:48;;;;;;;;;;;23.00;98.10;;;;;;5034327;28;19924;-81
2022/06/12 17:23:16;;;;;;;;;;;23.00;98.10;;;;;;5035488;28;19928;-81
2022/06/12 17:25:45;;;;;;;;;;;23.00;98.10;;;;;;5035158;28;20447;-81
2022/06/12 17:28:12;;;;;;;;;;;23.00;98.10;;;;;;5035512;28;19921;-81
2022/06/12 17:30:39;;;;;;;;;;;23.00;98.10;;;;;;5035169;28;19947;-81
2022/06/12 17:33:06;;;;;;;;;;;23.00;98.10;;;;;;5064568;22;19952;-79
2022/06/12 17:35:33;;;;;;;;;;;23.00;98.10;;;;;;5045448;28;20015;-79
2022/06/12 17:37:59;;;;;;;;;;;23.00;98.00;;;;;;5039185;28;19925;-79
2022/06/12 17:40:26;;;;;;;;;;;23.00;98.10;;;;;;5037418;28;19943;-80
2022/06/12 17:42:54;;;;;;;;;;;23.00;98.00;;;;;;5041963;28;19921;-80
2022/06/12 17:45:22;;;;;;;;;;;23.00;98.10;;;;;;5044846;28;19927;-81
2022/06/12 17:47:49;;;;;;;;;;;23.00;98.00;;;;;;5045439;28;19925;-82
2022/06/12 17:50:16;;;;;;;;;;;23.00;98.00;;;;;;5044503;28;20003;-82
2022/06/12 17:52:43;;;;;;;;;;;23.00;98.00;;;;;;5052483;28;19927;-80
2022/06/12 17:55:10;;;;;;;;;;;23.00;98.00;;;;;;5057723;28;19924;-80
2022/06/12 17:57:36;;;;;;;;;;;23.00;98.00;;;;;;5057739;28;19952;-80
2022/06/12 18:00:06;;;;;;;;;;;23.00;98.00;;;;;;5057079;28;19933;-81
2022/06/12 18:02:34;;;;;;;;;;;23.00;98.00;;;;;;5054625;28;20276;-80
2022/06/12 18:05:00;;;;;;;;;;;23.00;98.00;;;;;;5054071;28;19924;-80
2022/06/12 18:07:27;;;;;;;;;;;23.00;98.00;;;;;;5044730;28;20020;-79
2022/06/12 18:09:54;;;;;;;;;;;23.00;98.00;;;;;;5047294;28;19980;-82
2022/06/12 18:12:20;;;;;;;;;;;23.00;98.00;;;;;;5048675;28;20039;-82
2022/06/12 18:20:17;;;;;;;;;;;23.00;97.90;;;;;;5048062;28;19967;-80
2022/06/12 18:22:43;;;;;;;;;;;23.00;97.90;;;;;;5046965;28;19967;-81
2022/06/12 18:25:10;;;;;;;;;;;23.00;97.80;;;;;;5048554;28;20019;-80
2022/06/12 18:27:37;;;;;;;;;;;22.90;97.80;;;;;;5046944;28;19964;-80
2022/06/12 18:30:04;;;;;;;;;;;23.00;97.80;;;;;;5041846;28;20023;-79
2022/06/12 18:32:33;;;;;;;;;;;22.90;97.80;;;;;;5040057;28;19920;-79
2022/06/12 18:34:59;;;;;;;;;;;22.90;97.80;;;;;;5043220;28;19991;-81
2022/06/12 18:37:26;;;;;;;;;;;22.90;97.80;;;;;;5042929;28;19921;-79
2022/06/12 18:39:53;;;;;;;;;;;23.00;97.90;;;;;;5042963;28;19974;-80
2022/06/12 18:42:20;;;;;;;;;;;23.00;97.90;;;;;;5043192;28;19971;-79
2022/06/12 18:44:46;;;;;;;;;;;23.00;98.00;;;;;;5042480;28;19921;-79
2022/06/12 18:47:13;;;;;;;;;;;23.00;98.00;;;;;;5041832;28;19945;-79
2022/06/12 18:49:41;;;;;;;;;;;23.00;98.10;;;;;;5041572;28;19983;-80
2022/06/12 18:52:07;;;;;;;;;;;23.00;98.40;;;;;;5041264;28;20414;-79
2022/06/12 18:54:34;;;;;;;;;;;23.00;98.10;;;;;;5042527;28;20411;-80
2022/06/12 18:57:01;;;;;;;;;;;23.00;98.20;;;;;;5043347;28;19975;-80
2022/06/12 18:59:28;;;;;;;;;;;23.00;98.30;;;;;;5043191;28;19968;-80
2022/06/12 19:01:55;;;;;;;;;;;23.00;98.30;;;;;;5039355;28;20450;-76
2022/06/12 19:04:22;;;;;;;;;;;23.00;98.40;;;;;;5037369;28;19971;-76
2022/06/12 19:06:50;;;;;;;;;;;23.00;98.50;;;;;;5038605;28;20315;-81
2022/06/12 19:09:16;;;;;;;;;;;23.00;98.50;;;;;;5043800;28;20019;-80
2022/06/12 19:11:46;;;;;;;;;;;23.00;98.60;;;;;;5043797;28;19927;-80
2022/06/12 19:14:13;;;;;;;;;;;23.00;98.70;;;;;;5039151;28;19921;-76
2022/06/12 19:16:40;;;;;;;;;;;23.00;98.80;;;;;;5036687;28;19964;-77
2022/06/12 19:19:07;;;;;;;;;;;23.00;98.90;;;;;;5036958;28;19964;-80
2022/06/12 19:21:34;;;;;;;;;;;23.00;99.00;;;;;;5041443;28;20007;-82
2022/06/12 19:24:02;;;;;;;;;;;23.00;99.10;;;;;;5043901;28;19987;-82
2022/06/12 19:26:29;;;;;;;;;;;23.00;99.20;;;;;;5043120;28;20281;-82
2022/06/12 19:28:56;;;;;;;;;;;23.00;99.20;;;;;;5042961;28;19943;-82
2022/06/12 19:31:25;;;;;;;;;;;23.00;99.50;;;;;;5042612;28;20303;-82
2022/06/12 19:33:52;;;;;;;;;;;23.00;99.20;;;;;;5043044;28;19928;-82
2022/06/12 19:36:19;;;;;;;;;;;23.00;99.20;;;;;;5043078;28;19964;-82
2022/06/12 19:38:45;;;;;;;;;;;23.00;99.20;;;;;;5042500;28;20015;-82
2022/06/12 19:41:14;;;;;;;;;;;23.00;99.20;;;;;;5042420;28;19992;-83
2022/06/12 19:43:41;;;;;;;;;;;23.00;99.20;;;;;;5043106;28;19925;-82
2022/06/12 19:46:08;;;;;;;;;;;23.00;99.30;;;;;;5042677;28;19988;-82